sensor_id;sensor_type;location;lat;lon;timestamp;pressure;altitude;pressure_sealevel;temperature
7882;BMP180;3986;41.884;23.466;2024-02-23T00:01:43;91925.00;;;3.80
7882;BMP180;3986;41.884;23.466;2024-02-23T00:04:10;91918.00;;;3.70
7882;BMP180;3986;41.884;23.466;2024-02-23T00:06:36;91920.00;;;3.30
7882;BMP180;3986;41.884;23.466;2024-02-23T00:09:03;91922.00;;;3.20
7882;BMP180;3986;41.884;23.466;2024-02-23T00:11:31;91873.00;;;3.40
7882;BMP180;3986;41.884;23.466;2024-02-23T00:13:58;91926.00;;;3.60
7882;BMP180;3986;41.884;23.466;2024-02-23T00:16:26;91920.00;;;2.80
7882;BMP180;3986;41.884;23.466;2024-02-23T00:18:54;91915.00;;;3.00
7882;BMP180;3986;41.884;23.466;2024-02-23T00:21:21;91916.00;;;3.30
7882;BMP180;3986;41.884;23.466;2024-02-23T00:23:48;91924.00;;;3.50
7882;BMP180;3986;41.884;23.466;2024-02-23T00:26:14;91918.00;;;3.30
7882;BMP180;3986;41.884;23.466;2024-02-23T00:28:41;91918.00;;;3.40
7882;BMP180;3986;41.884;23.466;2024-02-23T00:31:08;91922.00;;;3.30
7882;BMP180;3986;41.884;23.466;2024-02-23T00:33:36;91934.00;;;3.50
7882;BMP180;3986;41.884;23.466;2024-02-23T00:36:07;91919.00;;;3.60
7882;BMP180;3986;41.884;23.466;2024-02-23T00:38:34;91906.00;;;3.60
7882;BMP180;3986;41.884;23.466;2024-02-23T00:41:01;91908.00;;;3.30
7882;BMP180;3986;41.884;23.466;2024-02-23T00:43:28;91908.00;;;3.20
7882;BMP180;3986;41.884;23.466;2024-02-23T00:45:55;91895.00;;;3.00
7882;BMP180;3986;41.884;23.466;2024-02-23T00:48:21;91901.00;;;3.20
7882;BMP180;3986;41.884;23.466;2024-02-23T00:50:49;91899.00;;;3.40
7882;BMP180;3986;41.884;23.466;2024-02-23T00:53:16;91894.00;;;3.50
7882;BMP180;3986;41.884;23.466;2024-02-23T00:55:46;91890.00;;;3.50
7882;BMP180;3986;41.884;23.466;2024-02-23T00:58:12;91887.00;;;3.40
7882;BMP180;3986;41.884;23.466;2024-02-23T01:00:41;91888.00;;;3.40
7882;BMP180;3986;41.884;23.466;2024-02-23T01:03:08;91885.00;;;3.00
7882;BMP180;3986;41.884;23.466;2024-02-23T01:05:34;91895.00;;;2.60
7882;BMP180;3986;41.884;23.466;2024-02-23T01:08:05;91887.00;;;2.90
7882;BMP180;3986;41.884;23.466;2024-02-23T01:10:32;91889.00;;;3.10
7882;BMP180;3986;41.884;23.466;2024-02-23T01:12:58;91885.00;;;3.30
7882;BMP180;3986;41.884;23.466;2024-02-23T01:15:25;91878.00;;;2.70
7882;BMP180;3986;41.884;23.466;2024-02-23T01:17:52;91881.00;;;2.90
7882;BMP180;3986;41.884;23.466;2024-02-23T01:20:19;91879.00;;;3.00
7882;BMP180;3986;41.884;23.466;2024-02-23T01:22:45;91877.00;;;2.70
7882;BMP180;3986;41.884;23.466;2024-02-23T01:25:14;91861.00;;;2.70
7882;BMP180;3986;41.884;23.466;2024-02-23T01:27:41;91874.00;;;2.90
7882;BMP180;3986;41.884;23.466;2024-02-23T01:30:10;91874.00;;;2.90
7882;BMP180;3986;41.884;23.466;2024-02-23T01:32:37;91873.00;;;2.90
7882;BMP180;3986;41.884;23.466;2024-02-23T01:35:05;91877.00;;;2.70
7882;BMP180;3986;41.884;23.466;2024-02-23T01:37:33;91871.00;;;3.00
7882;BMP180;3986;41.884;23.466;2024-02-23T01:40:00;91881.00;;;3.20
7882;BMP180;3986;41.884;23.466;2024-02-23T01:42:28;91891.00;;;3.00
7882;BMP180;3986;41.884;23.466;2024-02-23T01:44:55;91875.00;;;2.80
7882;BMP180;3986;41.884;23.466;2024-02-23T01:47:22;91878.00;;;3.30
7882;BMP180;3986;41.884;23.466;2024-02-23T01:49:49;91864.00;;;3.50
7882;BMP180;3986;41.884;23.466;2024-02-23T01:52:17;91874.00;;;3.10
7882;BMP180;3986;41.884;23.466;2024-02-23T01:54:44;91854.00;;;2.90
7882;BMP180;3986;41.884;23.466;2024-02-23T01:57:11;91861.00;;;2.70
7882;BMP180;3986;41.884;23.466;2024-02-23T01:59:39;91860.00;;;3.30
7882;BMP180;3986;41.884;23.466;2024-02-23T02:02:06;91857.00;;;3.40
7882;BMP180;3986;41.884;23.466;2024-02-23T02:04:33;91860.00;;;3.20
7882;BMP180;3986;41.884;23.466;2024-02-23T02:07:00;91860.00;;;3.50
7882;BMP180;3986;41.884;23.466;2024-02-23T02:09:27;91857.00;;;3.00
7882;BMP180;3986;41.884;23.466;2024-02-23T02:11:54;91850.00;;;2.70
7882;BMP180;3986;41.884;23.466;2024-02-23T02:14:21;91852.00;;;3.20
7882;BMP180;3986;41.884;23.466;2024-02-23T02:16:49;91858.00;;;3.40
7882;BMP180;3986;41.884;23.466;2024-02-23T02:19:16;91871.00;;;3.20
7882;BMP180;3986;41.884;23.466;2024-02-23T02:21:43;91859.00;;;3.30
7882;BMP180;3986;41.884;23.466;2024-02-23T02:24:10;91857.00;;;3.00
7882;BMP180;3986;41.884;23.466;2024-02-23T02:26:37;91853.00;;;3.00
7882;BMP180;3986;41.884;23.466;2024-02-23T02:29:04;91857.00;;;3.00
7882;BMP180;3986;41.884;23.466;2024-02-23T02:31:30;91853.00;;;3.20
7882;BMP180;3986;41.884;23.466;2024-02-23T02:34:03;91856.00;;;3.20
7882;BMP180;3986;41.884;23.466;2024-02-23T02:36:30;91854.00;;;3.40
7882;BMP180;3986;41.884;23.466;2024-02-23T02:38:57;91847.00;;;3.30
7882;BMP180;3986;41.884;23.466;2024-02-23T02:41:28;91840.00;;;3.40
7882;BMP180;3986;41.884;23.466;2024-02-23T02:43:55;91845.00;;;3.40
7882;BMP180;3986;41.884;23.466;2024-02-23T02:46:22;91848.00;;;3.50
7882;BMP180;3986;41.884;23.466;2024-02-23T02:48:48;91837.00;;;3.60
7882;BMP180;3986;41.884;23.466;2024-02-23T02:51:16;91835.00;;;3.70
7882;BMP180;3986;41.884;23.466;2024-02-23T02:53:43;91832.00;;;3.70
7882;BMP180;3986;41.884;23.466;2024-02-23T02:56:10;91839.00;;;3.60
7882;BMP180;3986;41.884;23.466;2024-02-23T02:58:37;91841.00;;;3.60
7882;BMP180;3986;41.884;23.466;2024-02-23T03:01:03;91833.00;;;3.60
7882;BMP180;3986;41.884;23.466;2024-02-23T03:03:31;91836.00;;;3.60
7882;BMP180;3986;41.884;23.466;2024-02-23T03:05:58;91827.00;;;3.50
7882;BMP180;3986;41.884;23.466;2024-02-23T03:08:26;91832.00;;;3.70
7882;BMP180;3986;41.884;23.466;2024-02-23T03:10:52;91818.00;;;3.60
7882;BMP180;3986;41.884;23.466;2024-02-23T03:13:19;91821.00;;;3.60
7882;BMP180;3986;41.884;23.466;2024-02-23T03:15:46;91821.00;;;3.30
7882;BMP180;3986;41.884;23.466;2024-02-23T03:18:13;91822.00;;;3.30
7882;BMP180;3986;41.884;23.466;2024-02-23T03:20:40;91825.00;;;3.40
7882;BMP180;3986;41.884;23.466;2024-02-23T03:23:07;91833.00;;;3.40
7882;BMP180;3986;41.884;23.466;2024-02-23T03:25:35;91827.00;;;3.40
7882;BMP180;3986;41.884;23.466;2024-02-23T03:28:02;91823.00;;;3.40
7882;BMP180;3986;41.884;23.466;2024-02-23T03:30:29;91817.00;;;3.30
7882;BMP180;3986;41.884;23.466;2024-02-23T03:32:56;91825.00;;;3.20
7882;BMP180;3986;41.884;23.466;2024-02-23T03:35:22;91831.00;;;3.20
7882;BMP180;3986;41.884;23.466;2024-02-23T03:37:49;91828.00;;;2.80
7882;BMP180;3986;41.884;23.466;2024-02-23T03:40:16;91830.00;;;2.80
7882;BMP180;3986;41.884;23.466;2024-02-23T03:42:46;91835.00;;;2.60
7882;BMP180;3986;41.884;23.466;2024-02-23T03:45:12;91839.00;;;2.70
7882;BMP180;3986;41.884;23.466;2024-02-23T03:47:39;91832.00;;;2.70
7882;BMP180;3986;41.884;23.466;2024-02-23T03:50:06;91825.00;;;2.90
7882;BMP180;3986;41.884;23.466;2024-02-23T03:52:33;91823.00;;;2.70
7882;BMP180;3986;41.884;23.466;2024-02-23T03:55:00;91822.00;;;2.80
7882;BMP180;3986;41.884;23.466;2024-02-23T03:57:29;91823.00;;;3.00
7882;BMP180;3986;41.884;23.466;2024-02-23T03:59:57;91826.00;;;2.70
7882;BMP180;3986;41.884;23.466;2024-02-23T04:02:24;91835.00;;;2.40
7882;BMP180;3986;41.884;23.466;2024-02-23T04:04:50;91834.00;;;2.10
7882;BMP180;3986;41.884;23.466;2024-02-23T04:07:17;91838.00;;;2.30
7882;BMP180;3986;41.884;23.466;2024-02-23T04:09:44;91831.00;;;2.30
7882;BMP180;3986;41.884;23.466;2024-02-23T04:12:10;91820.00;;;2.30
7882;BMP180;3986;41.884;23.466;2024-02-23T04:14:37;91827.00;;;2.50
7882;BMP180;3986;41.884;23.466;2024-02-23T04:17:07;91825.00;;;2.60
7882;BMP180;3986;41.884;23.466;2024-02-23T04:19:34;91832.00;;;2.50
7882;BMP180;3986;41.884;23.466;2024-02-23T04:22:00;91831.00;;;2.40
7882;BMP180;3986;41.884;23.466;2024-02-23T04:24:27;91830.00;;;2.70
7882;BMP180;3986;41.884;23.466;2024-02-23T04:26:54;91833.00;;;2.50
7882;BMP180;3986;41.884;23.466;2024-02-23T04:29:20;91836.00;;;2.30
7882;BMP180;3986;41.884;23.466;2024-02-23T04:31:47;91835.00;;;2.40
7882;BMP180;3986;41.884;23.466;2024-02-23T04:34:16;91833.00;;;2.50
7882;BMP180;3986;41.884;23.466;2024-02-23T04:36:42;91844.00;;;2.80
7882;BMP180;3986;41.884;23.466;2024-02-23T04:39:09;91834.00;;;2.80
7882;BMP180;3986;41.884;23.466;2024-02-23T04:41:36;91836.00;;;2.60
7882;BMP180;3986;41.884;23.466;2024-02-23T04:44:03;91839.00;;;2.60
7882;BMP180;3986;41.884;23.466;2024-02-23T04:46:31;91841.00;;;2.30
7882;BMP180;3986;41.884;23.466;2024-02-23T04:48:59;91826.00;;;2.30
7882;BMP180;3986;41.884;23.466;2024-02-23T04:51:27;91846.00;;;2.50
7882;BMP180;3986;41.884;23.466;2024-02-23T04:53:54;91834.00;;;2.70
7882;BMP180;3986;41.884;23.466;2024-02-23T04:56:21;91823.00;;;2.90
7882;BMP180;3986;41.884;23.466;2024-02-23T04:58:48;91838.00;;;2.70
7882;BMP180;3986;41.884;23.466;2024-02-23T05:01:15;91845.00;;;2.80
7882;BMP180;3986;41.884;23.466;2024-02-23T05:03:41;91849.00;;;2.50
7882;BMP180;3986;41.884;23.466;2024-02-23T05:06:08;91846.00;;;2.30
7882;BMP180;3986;41.884;23.466;2024-02-23T05:08:36;91851.00;;;2.40
7882;BMP180;3986;41.884;23.466;2024-02-23T05:11:03;91857.00;;;2.40
7882;BMP180;3986;41.884;23.466;2024-02-23T05:13:30;91862.00;;;2.50
7882;BMP180;3986;41.884;23.466;2024-02-23T05:15:57;91852.00;;;2.70
7882;BMP180;3986;41.884;23.466;2024-02-23T05:18:24;91847.00;;;2.90
7882;BMP180;3986;41.884;23.466;2024-02-23T05:20:50;91857.00;;;3.00
7882;BMP180;3986;41.884;23.466;2024-02-23T05:23:17;91860.00;;;3.10
7882;BMP180;3986;41.884;23.466;2024-02-23T05:25:45;91856.00;;;3.10
7882;BMP180;3986;41.884;23.466;2024-02-23T05:28:12;91849.00;;;2.40
7882;BMP180;3986;41.884;23.466;2024-02-23T05:30:39;91855.00;;;2.40
7882;BMP180;3986;41.884;23.466;2024-02-23T05:33:06;91849.00;;;2.50
7882;BMP180;3986;41.884;23.466;2024-02-23T05:35:33;91861.00;;;1.90
7882;BMP180;3986;41.884;23.466;2024-02-23T05:38:00;91869.00;;;2.30
7882;BMP180;3986;41.884;23.466;2024-02-23T05:40:26;91873.00;;;2.50
7882;BMP180;3986;41.884;23.466;2024-02-23T05:42:55;91865.00;;;2.50
7882;BMP180;3986;41.884;23.466;2024-02-23T05:45:22;91859.00;;;2.70
7882;BMP180;3986;41.884;23.466;2024-02-23T05:47:49;91872.00;;;2.80
7882;BMP180;3986;41.884;23.466;2024-02-23T05:50:16;91855.00;;;2.90
7882;BMP180;3986;41.884;23.466;2024-02-23T05:52:42;91871.00;;;2.50
7882;BMP180;3986;41.884;23.466;2024-02-23T05:55:09;91866.00;;;2.40
7882;BMP180;3986;41.884;23.466;2024-02-23T05:57:36;91858.00;;;2.80
7882;BMP180;3986;41.884;23.466;2024-02-23T06:00:05;91863.00;;;3.10
7882;BMP180;3986;41.884;23.466;2024-02-23T06:02:32;91873.00;;;3.20
7882;BMP180;3986;41.884;23.466;2024-02-23T06:04:59;91864.00;;;3.30
7882;BMP180;3986;41.884;23.466;2024-02-23T06:07:26;91859.00;;;3.40
7882;BMP180;3986;41.884;23.466;2024-02-23T06:09:54;91872.00;;;3.70
7882;BMP180;3986;41.884;23.466;2024-02-23T06:12:21;91884.00;;;4.30
7882;BMP180;3986;41.884;23.466;2024-02-23T06:14:48;91876.00;;;4.10
7882;BMP180;3986;41.884;23.466;2024-02-23T06:17:16;91876.00;;;4.20
7882;BMP180;3986;41.884;23.466;2024-02-23T06:19:43;91891.00;;;4.80
7882;BMP180;3986;41.884;23.466;2024-02-23T06:22:10;91891.00;;;5.30
7882;BMP180;3986;41.884;23.466;2024-02-23T06:24:37;91873.00;;;5.20
7882;BMP180;3986;41.884;23.466;2024-02-23T06:27:04;91893.00;;;5.10
7882;BMP180;3986;41.884;23.466;2024-02-23T06:29:31;91895.00;;;5.50
7882;BMP180;3986;41.884;23.466;2024-02-23T06:31:59;91892.00;;;5.20
7882;BMP180;3986;41.884;23.466;2024-02-23T06:34:29;91898.00;;;5.60
7882;BMP180;3986;41.884;23.466;2024-02-23T06:36:56;91895.00;;;5.90
7882;BMP180;3986;41.884;23.466;2024-02-23T06:39:23;91898.00;;;6.20
7882;BMP180;3986;41.884;23.466;2024-02-23T06:41:50;91890.00;;;5.60
7882;BMP180;3986;41.884;23.466;2024-02-23T06:44:17;91882.00;;;6.10
7882;BMP180;3986;41.884;23.466;2024-02-23T06:46:43;91886.00;;;6.50
7882;BMP180;3986;41.884;23.466;2024-02-23T06:49:10;91882.00;;;6.70
7882;BMP180;3986;41.884;23.466;2024-02-23T06:51:39;91881.00;;;6.50
7882;BMP180;3986;41.884;23.466;2024-02-23T06:54:06;91878.00;;;6.70
7882;BMP180;3986;41.884;23.466;2024-02-23T06:56:33;91885.00;;;6.90
7882;BMP180;3986;41.884;23.466;2024-02-23T06:59:02;91899.00;;;6.80
7882;BMP180;3986;41.884;23.466;2024-02-23T07:01:29;91885.00;;;7.20
7882;BMP180;3986;41.884;23.466;2024-02-23T07:03:56;91895.00;;;7.70
7882;BMP180;3986;41.884;23.466;2024-02-23T07:06:24;91892.00;;;7.90
7882;BMP180;3986;41.884;23.466;2024-02-23T07:08:52;91898.00;;;8.10
7882;BMP180;3986;41.884;23.466;2024-02-23T07:11:20;91896.00;;;8.30
7882;BMP180;3986;41.884;23.466;2024-02-23T07:13:46;91896.00;;;7.70
7882;BMP180;3986;41.884;23.466;2024-02-23T07:16:13;91893.00;;;8.40
7882;BMP180;3986;41.884;23.466;2024-02-23T07:18:40;91899.00;;;8.70
7882;BMP180;3986;41.884;23.466;2024-02-23T07:21:07;91898.00;;;8.90
7882;BMP180;3986;41.884;23.466;2024-02-23T07:23:34;91882.00;;;8.90
7882;BMP180;3986;41.884;23.466;2024-02-23T07:26:03;91883.00;;;9.40
7882;BMP180;3986;41.884;23.466;2024-02-23T07:28:29;91808.00;;;9.70
7882;BMP180;3986;41.884;23.466;2024-02-23T07:30:58;91873.00;;;9.90
7882;BMP180;3986;41.884;23.466;2024-02-23T07:33:24;91879.00;;;10.10
7882;BMP180;3986;41.884;23.466;2024-02-23T07:35:51;91880.00;;;10.40
7882;BMP180;3986;41.884;23.466;2024-02-23T07:38:18;91871.00;;;10.80
7882;BMP180;3986;41.884;23.466;2024-02-23T07:40:45;91870.00;;;10.90
7882;BMP180;3986;41.884;23.466;2024-02-23T07:43:13;91877.00;;;11.00
7882;BMP180;3986;41.884;23.466;2024-02-23T07:45:40;91876.00;;;11.30
7882;BMP180;3986;41.884;23.466;2024-02-23T07:48:08;91876.00;;;11.50
7882;BMP180;3986;41.884;23.466;2024-02-23T07:50:34;91846.00;;;11.50
7882;BMP180;3986;41.884;23.466;2024-02-23T07:53:01;91875.00;;;11.70
7882;BMP180;3986;41.884;23.466;2024-02-23T07:55:29;91877.00;;;12.40
7882;BMP180;3986;41.884;23.466;2024-02-23T07:57:56;91863.00;;;12.40
7882;BMP180;3986;41.884;23.466;2024-02-23T08:00:28;91858.00;;;11.80
7882;BMP180;3986;41.884;23.466;2024-02-23T08:02:54;91877.00;;;11.60
7882;BMP180;3986;41.884;23.466;2024-02-23T08:05:22;91883.00;;;12.30
7882;BMP180;3986;41.884;23.466;2024-02-23T08:07:49;91883.00;;;12.90
7882;BMP180;3986;41.884;23.466;2024-02-23T08:10:15;91864.00;;;13.00
7882;BMP180;3986;41.884;23.466;2024-02-23T08:12:42;91875.00;;;13.50
7882;BMP180;3986;41.884;23.466;2024-02-23T08:15:09;91872.00;;;12.30
7882;BMP180;3986;41.884;23.466;2024-02-23T08:17:37;91876.00;;;13.60
7882;BMP180;3986;41.884;23.466;2024-02-23T08:20:05;91887.00;;;14.40
7882;BMP180;3986;41.884;23.466;2024-02-23T08:22:33;91879.00;;;14.70
7882;BMP180;3986;41.884;23.466;2024-02-23T08:24:59;91805.00;;;13.80
7882;BMP180;3986;41.884;23.466;2024-02-23T08:27:26;91883.00;;;15.70
7882;BMP180;3986;41.884;23.466;2024-02-23T08:29:53;91879.00;;;16.30
7882;BMP180;3986;41.884;23.466;2024-02-23T08:32:20;91876.00;;;15.00
7882;BMP180;3986;41.884;23.466;2024-02-23T08:34:48;91879.00;;;18.10
7882;BMP180;3986;41.884;23.466;2024-02-23T08:37:15;91877.00;;;16.60
7882;BMP180;3986;41.884;23.466;2024-02-23T08:39:42;91877.00;;;19.40
7882;BMP180;3986;41.884;23.466;2024-02-23T08:42:09;91874.00;;;20.60
7882;BMP180;3986;41.884;23.466;2024-02-23T08:44:36;91879.00;;;22.80
7882;BMP180;3986;41.884;23.466;2024-02-23T08:47:04;91880.00;;;23.40
7882;BMP180;3986;41.884;23.466;2024-02-23T08:49:31;91875.00;;;23.80
7882;BMP180;3986;41.884;23.466;2024-02-23T08:52:00;91876.00;;;23.50
7882;BMP180;3986;41.884;23.466;2024-02-23T08:54:27;91880.00;;;20.20
7882;BMP180;3986;41.884;23.466;2024-02-23T08:56:54;91878.00;;;21.70
7882;BMP180;3986;41.884;23.466;2024-02-23T08:59:21;91879.00;;;25.20
7882;BMP180;3986;41.884;23.466;2024-02-23T09:01:48;91874.00;;;26.20
7882;BMP180;3986;41.884;23.466;2024-02-23T09:04:14;91890.00;;;27.20
7882;BMP180;3986;41.884;23.466;2024-02-23T09:06:41;91901.00;;;25.50
7882;BMP180;3986;41.884;23.466;2024-02-23T09:09:09;91889.00;;;26.20
7882;BMP180;3986;41.884;23.466;2024-02-23T09:11:36;91896.00;;;27.70
7882;BMP180;3986;41.884;23.466;2024-02-23T09:14:03;91897.00;;;29.00
7882;BMP180;3986;41.884;23.466;2024-02-23T09:16:30;91888.00;;;24.20
7882;BMP180;3986;41.884;23.466;2024-02-23T09:18:57;91898.00;;;28.30
7882;BMP180;3986;41.884;23.466;2024-02-23T09:21:24;91896.00;;;28.60
7882;BMP180;3986;41.884;23.466;2024-02-23T09:23:51;91885.00;;;29.90
7882;BMP180;3986;41.884;23.466;2024-02-23T09:26:19;91894.00;;;29.70
7882;BMP180;3986;41.884;23.466;2024-02-23T09:28:45;91879.00;;;27.20
7882;BMP180;3986;41.884;23.466;2024-02-23T09:31:12;91877.00;;;30.50
7882;BMP180;3986;41.884;23.466;2024-02-23T09:33:39;91877.00;;;31.50
7882;BMP180;3986;41.884;23.466;2024-02-23T09:36:06;91880.00;;;28.80
7882;BMP180;3986;41.884;23.466;2024-02-23T09:38:35;91882.00;;;28.50
7882;BMP180;3986;41.884;23.466;2024-02-23T09:41:02;91881.00;;;31.40
7882;BMP180;3986;41.884;23.466;2024-02-23T09:43:33;91876.00;;;30.70
7882;BMP180;3986;41.884;23.466;2024-02-23T09:46:00;91844.00;;;32.30
7882;BMP180;3986;41.884;23.466;2024-02-23T09:48:28;91877.00;;;33.30
7882;BMP180;3986;41.884;23.466;2024-02-23T09:50:57;91879.00;;;33.90
7882;BMP180;3986;41.884;23.466;2024-02-23T09:53:25;91860.00;;;31.30
7882;BMP180;3986;41.884;23.466;2024-02-23T09:55:53;91870.00;;;28.10
7882;BMP180;3986;41.884;23.466;2024-02-23T09:58:21;91853.00;;;30.00
7882;BMP180;3986;41.884;23.466;2024-02-23T10:00:51;91853.00;;;32.50
7882;BMP180;3986;41.884;23.466;2024-02-23T10:03:18;91858.00;;;31.90
7882;BMP180;3986;41.884;23.466;2024-02-23T10:05:45;91848.00;;;33.00
7882;BMP180;3986;41.884;23.466;2024-02-23T10:08:11;91781.00;;;29.30
7882;BMP180;3986;41.884;23.466;2024-02-23T10:10:38;91854.00;;;33.20
7882;BMP180;3986;41.884;23.466;2024-02-23T10:13:06;91858.00;;;32.20
7882;BMP180;3986;41.884;23.466;2024-02-23T10:15:33;91849.00;;;27.70
7882;BMP180;3986;41.884;23.466;2024-02-23T10:18:02;91845.00;;;28.60
7882;BMP180;3986;41.884;23.466;2024-02-23T10:20:29;91843.00;;;31.20
7882;BMP180;3986;41.884;23.466;2024-02-23T10:22:56;91841.00;;;32.20
7882;BMP180;3986;41.884;23.466;2024-02-23T10:25:23;91837.00;;;32.60
7882;BMP180;3986;41.884;23.466;2024-02-23T10:27:50;91835.00;;;33.70
7882;BMP180;3986;41.884;23.466;2024-02-23T10:30:17;91835.00;;;33.50
7882;BMP180;3986;41.884;23.466;2024-02-23T10:32:45;91815.00;;;32.60
7882;BMP180;3986;41.884;23.466;2024-02-23T10:35:15;91826.00;;;32.80
7882;BMP180;3986;41.884;23.466;2024-02-23T10:37:43;91834.00;;;32.70
7882;BMP180;3986;41.884;23.466;2024-02-23T10:40:12;91841.00;;;32.50
7882;BMP180;3986;41.884;23.466;2024-02-23T10:42:39;91821.00;;;34.60
7882;BMP180;3986;41.884;23.466;2024-02-23T10:45:08;91825.00;;;36.20
7882;BMP180;3986;41.884;23.466;2024-02-23T10:47:35;91830.00;;;35.70
7882;BMP180;3986;41.884;23.466;2024-02-23T10:50:03;91813.00;;;35.00
7882;BMP180;3986;41.884;23.466;2024-02-23T10:52:33;91810.00;;;35.70
7882;BMP180;3986;41.884;23.466;2024-02-23T10:55:01;91804.00;;;35.30
7882;BMP180;3986;41.884;23.466;2024-02-23T10:57:30;91800.00;;;33.10
7882;BMP180;3986;41.884;23.466;2024-02-23T10:59:58;91806.00;;;34.80
7882;BMP180;3986;41.884;23.466;2024-02-23T11:02:27;91821.00;;;35.40
7882;BMP180;3986;41.884;23.466;2024-02-23T11:04:57;91803.00;;;34.20
7882;BMP180;3986;41.884;23.466;2024-02-23T11:07:25;91781.00;;;30.70
7882;BMP180;3986;41.884;23.466;2024-02-23T11:09:58;91785.00;;;32.30
7882;BMP180;3986;41.884;23.466;2024-02-23T11:12:26;91790.00;;;33.20
7882;BMP180;3986;41.884;23.466;2024-02-23T11:14:56;91785.00;;;31.20
7882;BMP180;3986;41.884;23.466;2024-02-23T11:17:26;91777.00;;;34.80
7882;BMP180;3986;41.884;23.466;2024-02-23T11:19:54;91783.00;;;36.10
7882;BMP180;3986;41.884;23.466;2024-02-23T11:22:24;91784.00;;;34.90
7882;BMP180;3986;41.884;23.466;2024-02-23T11:24:53;91759.00;;;36.30
7882;BMP180;3986;41.884;23.466;2024-02-23T11:27:24;91753.00;;;31.70
7882;BMP180;3986;41.884;23.466;2024-02-23T11:29:59;91762.00;;;33.10
7882;BMP180;3986;41.884;23.466;2024-02-23T11:32:36;91766.00;;;36.20
7882;BMP180;3986;41.884;23.466;2024-02-23T11:35:04;91751.00;;;31.70
7882;BMP180;3986;41.884;23.466;2024-02-23T11:37:32;91734.00;;;28.40
7882;BMP180;3986;41.884;23.466;2024-02-23T11:39:59;91750.00;;;30.90
7882;BMP180;3986;41.884;23.466;2024-02-23T11:42:30;91745.00;;;29.80
7882;BMP180;3986;41.884;23.466;2024-02-23T11:44:57;91762.00;;;32.60
7882;BMP180;3986;41.884;23.466;2024-02-23T11:47:25;91753.00;;;31.40
7882;BMP180;3986;41.884;23.466;2024-02-23T11:49:52;91743.00;;;29.90
7882;BMP180;3986;41.884;23.466;2024-02-23T11:52:18;91739.00;;;29.70
7882;BMP180;3986;41.884;23.466;2024-02-23T11:54:46;91741.00;;;28.90
7882;BMP180;3986;41.884;23.466;2024-02-23T11:57:13;91744.00;;;25.10
7882;BMP180;3986;41.884;23.466;2024-02-23T11:59:42;91734.00;;;26.10
7882;BMP180;3986;41.884;23.466;2024-02-23T12:02:08;91739.00;;;29.70
7882;BMP180;3986;41.884;23.466;2024-02-23T12:04:35;91729.00;;;22.70
7882;BMP180;3986;41.884;23.466;2024-02-23T12:07:03;91726.00;;;26.50
7882;BMP180;3986;41.884;23.466;2024-02-23T12:09:30;91731.00;;;30.10
7882;BMP180;3986;41.884;23.466;2024-02-23T12:11:57;91735.00;;;27.70
7882;BMP180;3986;41.884;23.466;2024-02-23T12:14:24;91729.00;;;29.60
7882;BMP180;3986;41.884;23.466;2024-02-23T12:16:53;91721.00;;;27.00
7882;BMP180;3986;41.884;23.466;2024-02-23T12:19:19;91729.00;;;31.00
7882;BMP180;3986;41.884;23.466;2024-02-23T12:21:46;91729.00;;;32.80
7882;BMP180;3986;41.884;23.466;2024-02-23T12:24:13;91707.00;;;25.50
7882;BMP180;3986;41.884;23.466;2024-02-23T12:26:40;91716.00;;;22.20
7882;BMP180;3986;41.884;23.466;2024-02-23T12:29:07;91708.00;;;25.60
7882;BMP180;3986;41.884;23.466;2024-02-23T12:31:34;91715.00;;;23.20
7882;BMP180;3986;41.884;23.466;2024-02-23T12:34:02;91701.00;;;21.30
7882;BMP180;3986;41.884;23.466;2024-02-23T12:36:29;91708.00;;;24.70
7882;BMP180;3986;41.884;23.466;2024-02-23T12:38:56;91705.00;;;24.20
7882;BMP180;3986;41.884;23.466;2024-02-23T12:41:23;91705.00;;;23.90
7882;BMP180;3986;41.884;23.466;2024-02-23T12:43:49;91706.00;;;22.70
7882;BMP180;3986;41.884;23.466;2024-02-23T12:46:17;91697.00;;;23.70
7882;BMP180;3986;41.884;23.466;2024-02-23T12:48:44;91695.00;;;24.80
7882;BMP180;3986;41.884;23.466;2024-02-23T12:51:12;91709.00;;;24.10
7882;BMP180;3986;41.884;23.466;2024-02-23T12:53:40;91702.00;;;23.40
7882;BMP180;3986;41.884;23.466;2024-02-23T12:56:09;91691.00;;;24.60
7882;BMP180;3986;41.884;23.466;2024-02-23T12:58:37;91693.00;;;26.50
7882;BMP180;3986;41.884;23.466;2024-02-23T13:01:04;91697.00;;;23.60
7882;BMP180;3986;41.884;23.466;2024-02-23T13:03:32;91695.00;;;23.40
7882;BMP180;3986;41.884;23.466;2024-02-23T13:06:00;91703.00;;;25.70
7882;BMP180;3986;41.884;23.466;2024-02-23T13:08:29;91679.00;;;23.40
7882;BMP180;3986;41.884;23.466;2024-02-23T13:10:57;91694.00;;;22.20
7882;BMP180;3986;41.884;23.466;2024-02-23T13:13:24;91695.00;;;23.20
7882;BMP180;3986;41.884;23.466;2024-02-23T13:15:52;91685.00;;;22.30
7882;BMP180;3986;41.884;23.466;2024-02-23T13:18:19;91688.00;;;21.60
7882;BMP180;3986;41.884;23.466;2024-02-23T13:20:45;91695.00;;;22.60
7882;BMP180;3986;41.884;23.466;2024-02-23T13:23:12;91709.00;;;20.10
7882;BMP180;3986;41.884;23.466;2024-02-23T13:25:42;91727.00;;;22.50
7882;BMP180;3986;41.884;23.466;2024-02-23T13:28:09;91697.00;;;22.30
7882;BMP180;3986;41.884;23.466;2024-02-23T13:30:37;91693.00;;;22.90
7882;BMP180;3986;41.884;23.466;2024-02-23T13:33:04;91687.00;;;22.50
7882;BMP180;3986;41.884;23.466;2024-02-23T13:35:31;91704.00;;;23.90
7882;BMP180;3986;41.884;23.466;2024-02-23T13:37:59;91695.00;;;24.70
7882;BMP180;3986;41.884;23.466;2024-02-23T13:40:29;91633.00;;;24.30
7882;BMP180;3986;41.884;23.466;2024-02-23T13:42:57;91677.00;;;23.40
7882;BMP180;3986;41.884;23.466;2024-02-23T13:45:24;91624.00;;;23.50
7882;BMP180;3986;41.884;23.466;2024-02-23T13:47:58;91697.00;;;22.40
7882;BMP180;3986;41.884;23.466;2024-02-23T13:50:25;91697.00;;;26.40
7882;BMP180;3986;41.884;23.466;2024-02-23T13:52:52;91698.00;;;24.70
7882;BMP180;3986;41.884;23.466;2024-02-23T13:55:19;91684.00;;;21.10
7882;BMP180;3986;41.884;23.466;2024-02-23T13:57:47;91694.00;;;22.50
7882;BMP180;3986;41.884;23.466;2024-02-23T14:00:16;91691.00;;;21.70
7882;BMP180;3986;41.884;23.466;2024-02-23T14:02:44;91680.00;;;20.60
7882;BMP180;3986;41.884;23.466;2024-02-23T14:05:11;91683.00;;;21.20
7882;BMP180;3986;41.884;23.466;2024-02-23T14:07:38;91683.00;;;21.10
7882;BMP180;3986;41.884;23.466;2024-02-23T14:10:07;91684.00;;;20.20
7882;BMP180;3986;41.884;23.466;2024-02-23T14:12:34;91692.00;;;20.00
7882;BMP180;3986;41.884;23.466;2024-02-23T14:15:01;91648.00;;;19.10
7882;BMP180;3986;41.884;23.466;2024-02-23T14:17:28;91694.00;;;21.00
7882;BMP180;3986;41.884;23.466;2024-02-23T14:19:55;91699.00;;;20.00
7882;BMP180;3986;41.884;23.466;2024-02-23T14:22:22;91692.00;;;18.40
7882;BMP180;3986;41.884;23.466;2024-02-23T14:24:49;91715.00;;;18.50
7882;BMP180;3986;41.884;23.466;2024-02-23T14:27:16;91699.00;;;17.50
7882;BMP180;3986;41.884;23.466;2024-02-23T14:29:43;91699.00;;;17.70